Terminal Aerodrome Forecast
Issued by NWS Sioux Falls, SD

Home | Current Version | Previous Version | Text Only | Print | Product List | Glossary On
Versions: 1 2 3 4 5 6 7 8 9 10 11 12 13 14 15 16
836
FTUS43 KFSD 221725
TAFHON
TAF
KHON 221725Z 2218/2318 16009KT P6SM SCT045
     FM230400 11007KT P6SM VCTS BKN100CB
     FM230800 13007KT P6SM VCTS BKN015CB
     FM231000 13009KT P6SM BKN015
     FM231500 14011KT P6SM SCT010=

USA.gov is the U.S. government's official web portal to all federal, state and local government web resources and services.